sensor_id;sensor_type;location;lat;lon;timestamp;P1;durP1;ratioP1;P2;durP2;ratioP2
24407;SDS011;12542;50.924;4.516;2023-05-15T00:00:08;65.25;;;34.90;;
24407;SDS011;12542;50.924;4.516;2023-05-15T00:02:37;65.88;;;35.17;;
24407;SDS011;12542;50.924;4.516;2023-05-15T00:05:04;63.55;;;34.70;;
24407;SDS011;12542;50.924;4.516;2023-05-15T00:07:32;71.45;;;37.47;;
24407;SDS011;12542;50.924;4.516;2023-05-15T00:09:58;73.95;;;36.83;;
24407;SDS011;12542;50.924;4.516;2023-05-15T00:12:24;77.03;;;39.33;;
24407;SDS011;12542;50.924;4.516;2023-05-15T00:14:50;78.93;;;39.03;;
24407;SDS011;12542;50.924;4.516;2023-05-15T00:17:16;78.80;;;39.97;;
24407;SDS011;12542;50.924;4.516;2023-05-15T00:19:41;81.13;;;39.85;;
24407;SDS011;12542;50.924;4.516;2023-05-15T00:22:07;73.50;;;38.03;;
24407;SDS011;12542;50.924;4.516;2023-05-15T00:24:33;83.85;;;40.15;;
24407;SDS011;12542;50.924;4.516;2023-05-15T00:26:59;78.18;;;40.10;;
24407;SDS011;12542;50.924;4.516;2023-05-15T00:29:28;89.90;;;41.92;;
24407;SDS011;12542;50.924;4.516;2023-05-15T00:31:54;86.47;;;43.40;;
24407;SDS011;12542;50.924;4.516;2023-05-15T00:34:20;82.88;;;39.22;;
24407;SDS011;12542;50.924;4.516;2023-05-15T00:36:47;83.00;;;41.97;;
24407;SDS011;12542;50.924;4.516;2023-05-15T00:39:12;82.50;;;41.35;;
24407;SDS011;12542;50.924;4.516;2023-05-15T00:41:38;92.75;;;44.33;;
24407;SDS011;12542;50.924;4.516;2023-05-15T00:44:06;84.63;;;42.35;;
24407;SDS011;12542;50.924;4.516;2023-05-15T00:46:32;85.10;;;43.10;;
24407;SDS011;12542;50.924;4.516;2023-05-15T00:49:03;89.38;;;43.05;;
24407;SDS011;12542;50.924;4.516;2023-05-15T00:51:30;82.10;;;42.20;;
24407;SDS011;12542;50.924;4.516;2023-05-15T00:53:56;89.63;;;41.70;;
24407;SDS011;12542;50.924;4.516;2023-05-15T00:56:23;83.43;;;41.35;;
24407;SDS011;12542;50.924;4.516;2023-05-15T00:58:49;79.55;;;41.30;;
24407;SDS011;12542;50.924;4.516;2023-05-15T01:01:16;81.30;;;40.72;;
24407;SDS011;12542;50.924;4.516;2023-05-15T01:03:46;85.03;;;41.85;;
24407;SDS011;12542;50.924;4.516;2023-05-15T01:06:12;80.53;;;40.70;;
24407;SDS011;12542;50.924;4.516;2023-05-15T01:08:47;78.32;;;39.38;;
24407;SDS011;12542;50.924;4.516;2023-05-15T01:11:14;87.72;;;41.78;;
24407;SDS011;12542;50.924;4.516;2023-05-15T01:13:41;76.13;;;38.85;;
24407;SDS011;12542;50.924;4.516;2023-05-15T01:16:08;78.05;;;37.58;;
24407;SDS011;12542;50.924;4.516;2023-05-15T01:18:34;80.70;;;38.35;;
24407;SDS011;12542;50.924;4.516;2023-05-15T01:31:53;73.93;;;38.70;;
24407;SDS011;12542;50.924;4.516;2023-05-15T01:34:30;72.78;;;38.22;;
24407;SDS011;12542;50.924;4.516;2023-05-15T01:37:04;76.38;;;38.75;;
24407;SDS011;12542;50.924;4.516;2023-05-15T01:39:33;68.05;;;38.50;;
24407;SDS011;12542;50.924;4.516;2023-05-15T01:42:04;71.38;;;37.42;;
24407;SDS011;12542;50.924;4.516;2023-05-15T01:44:31;73.38;;;40.33;;
24407;SDS011;12542;50.924;4.516;2023-05-15T01:47:01;71.80;;;37.10;;
24407;SDS011;12542;50.924;4.516;2023-05-15T01:49:31;77.05;;;38.80;;
24407;SDS011;12542;50.924;4.516;2023-05-15T01:52:05;72.70;;;39.80;;
24407;SDS011;12542;50.924;4.516;2023-05-15T01:57:09;76.88;;;40.10;;
24407;SDS011;12542;50.924;4.516;2023-05-15T01:59:36;67.88;;;38.80;;
24407;SDS011;12542;50.924;4.516;2023-05-15T02:02:05;69.18;;;38.13;;
24407;SDS011;12542;50.924;4.516;2023-05-15T02:04:32;76.00;;;40.30;;
24407;SDS011;12542;50.924;4.516;2023-05-15T02:06:58;69.50;;;37.45;;
24407;SDS011;12542;50.924;4.516;2023-05-15T02:09:27;70.13;;;39.17;;
24407;SDS011;12542;50.924;4.516;2023-05-15T02:11:53;69.47;;;39.50;;
24407;SDS011;12542;50.924;4.516;2023-05-15T02:14:20;69.65;;;37.58;;
24407;SDS011;12542;50.924;4.516;2023-05-15T02:16:48;69.10;;;38.10;;
24407;SDS011;12542;50.924;4.516;2023-05-15T02:19:16;71.18;;;39.17;;
24407;SDS011;12542;50.924;4.516;2023-05-15T02:21:43;69.45;;;39.15;;
24407;SDS011;12542;50.924;4.516;2023-05-15T02:24:09;77.40;;;38.95;;
24407;SDS011;12542;50.924;4.516;2023-05-15T02:37:40;72.88;;;40.30;;
24407;SDS011;12542;50.924;4.516;2023-05-15T02:40:10;77.85;;;43.10;;
24407;SDS011;12542;50.924;4.516;2023-05-15T02:42:37;78.30;;;41.30;;
24407;SDS011;12542;50.924;4.516;2023-05-15T02:45:04;87.50;;;42.60;;
24407;SDS011;12542;50.924;4.516;2023-05-15T02:47:32;91.47;;;42.88;;
24407;SDS011;12542;50.924;4.516;2023-05-15T02:49:58;82.10;;;41.58;;
24407;SDS011;12542;50.924;4.516;2023-05-15T02:52:25;90.15;;;43.83;;
24407;SDS011;12542;50.924;4.516;2023-05-15T02:54:51;88.70;;;44.13;;
24407;SDS011;12542;50.924;4.516;2023-05-15T02:57:17;96.30;;;46.55;;
24407;SDS011;12542;50.924;4.516;2023-05-15T02:59:43;100.13;;;47.20;;
24407;SDS011;12542;50.924;4.516;2023-05-15T03:02:09;105.45;;;50.53;;
24407;SDS011;12542;50.924;4.516;2023-05-15T03:04:34;103.72;;;49.65;;
24407;SDS011;12542;50.924;4.516;2023-05-15T03:07:00;109.60;;;51.33;;
24407;SDS011;12542;50.924;4.516;2023-05-15T03:09:26;114.10;;;52.40;;
24407;SDS011;12542;50.924;4.516;2023-05-15T03:11:54;106.88;;;51.10;;
24407;SDS011;12542;50.924;4.516;2023-05-15T03:14:22;115.70;;;51.58;;
24407;SDS011;12542;50.924;4.516;2023-05-15T03:16:50;109.32;;;51.35;;
24407;SDS011;12542;50.924;4.516;2023-05-15T03:19:16;108.35;;;50.88;;
24407;SDS011;12542;50.924;4.516;2023-05-15T03:21:42;105.00;;;50.45;;
24407;SDS011;12542;50.924;4.516;2023-05-15T03:24:08;109.15;;;51.00;;
24407;SDS011;12542;50.924;4.516;2023-05-15T03:26:34;112.47;;;49.75;;
24407;SDS011;12542;50.924;4.516;2023-05-15T03:29:00;104.97;;;48.75;;
24407;SDS011;12542;50.924;4.516;2023-05-15T03:31:26;111.00;;;50.85;;
24407;SDS011;12542;50.924;4.516;2023-05-15T03:33:52;115.35;;;51.33;;
24407;SDS011;12542;50.924;4.516;2023-05-15T03:36:17;109.28;;;51.50;;
24407;SDS011;12542;50.924;4.516;2023-05-15T03:38:43;114.63;;;53.22;;
24407;SDS011;12542;50.924;4.516;2023-05-15T03:41:09;111.93;;;50.83;;
24407;SDS011;12542;50.924;4.516;2023-05-15T03:43:35;110.75;;;51.38;;
24407;SDS011;12542;50.924;4.516;2023-05-15T03:46:00;109.88;;;50.90;;
24407;SDS011;12542;50.924;4.516;2023-05-15T03:48:26;100.43;;;47.97;;
24407;SDS011;12542;50.924;4.516;2023-05-15T03:50:52;102.75;;;48.58;;
24407;SDS011;12542;50.924;4.516;2023-05-15T03:53:18;99.55;;;47.78;;
24407;SDS011;12542;50.924;4.516;2023-05-15T03:55:43;99.30;;;48.85;;
24407;SDS011;12542;50.924;4.516;2023-05-15T03:58:09;97.22;;;46.50;;
24407;SDS011;12542;50.924;4.516;2023-05-15T04:00:35;97.93;;;46.20;;
24407;SDS011;12542;50.924;4.516;2023-05-15T04:03:01;93.55;;;45.42;;
24407;SDS011;12542;50.924;4.516;2023-05-15T04:05:26;94.72;;;46.38;;
24407;SDS011;12542;50.924;4.516;2023-05-15T04:07:52;93.82;;;45.20;;
24407;SDS011;12542;50.924;4.516;2023-05-15T04:10:18;98.35;;;47.95;;
24407;SDS011;12542;50.924;4.516;2023-05-15T04:12:46;96.97;;;47.90;;
24407;SDS011;12542;50.924;4.516;2023-05-15T04:15:16;109.72;;;50.33;;
24407;SDS011;12542;50.924;4.516;2023-05-15T04:17:44;106.93;;;48.30;;
24407;SDS011;12542;50.924;4.516;2023-05-15T04:20:11;106.03;;;48.47;;
24407;SDS011;12542;50.924;4.516;2023-05-15T04:22:39;113.57;;;50.35;;
24407;SDS011;12542;50.924;4.516;2023-05-15T04:25:06;110.72;;;49.65;;
24407;SDS011;12542;50.924;4.516;2023-05-15T04:27:33;121.00;;;51.00;;
24407;SDS011;12542;50.924;4.516;2023-05-15T04:30:00;110.75;;;51.00;;
24407;SDS011;12542;50.924;4.516;2023-05-15T04:32:26;121.47;;;52.88;;
24407;SDS011;12542;50.924;4.516;2023-05-15T04:34:52;116.35;;;51.15;;
24407;SDS011;12542;50.924;4.516;2023-05-15T04:37:17;120.03;;;53.97;;
24407;SDS011;12542;50.924;4.516;2023-05-15T04:39:43;137.45;;;57.65;;
24407;SDS011;12542;50.924;4.516;2023-05-15T04:42:09;134.52;;;58.42;;
24407;SDS011;12542;50.924;4.516;2023-05-15T04:44:35;133.02;;;58.50;;
24407;SDS011;12542;50.924;4.516;2023-05-15T04:47:03;146.88;;;59.13;;
24407;SDS011;12542;50.924;4.516;2023-05-15T04:49:29;155.63;;;63.60;;
24407;SDS011;12542;50.924;4.516;2023-05-15T04:51:57;161.75;;;68.15;;
24407;SDS011;12542;50.924;4.516;2023-05-15T04:54:23;181.70;;;72.43;;
24407;SDS011;12542;50.924;4.516;2023-05-15T04:56:48;166.65;;;70.95;;
24407;SDS011;12542;50.924;4.516;2023-05-15T04:59:16;200.80;;;80.25;;
24407;SDS011;12542;50.924;4.516;2023-05-15T05:01:42;210.52;;;80.40;;
24407;SDS011;12542;50.924;4.516;2023-05-15T05:04:08;201.48;;;82.03;;
24407;SDS011;12542;50.924;4.516;2023-05-15T05:06:35;204.93;;;80.90;;
24407;SDS011;12542;50.924;4.516;2023-05-15T05:09:01;203.68;;;80.80;;
24407;SDS011;12542;50.924;4.516;2023-05-15T05:11:27;198.38;;;73.10;;
24407;SDS011;12542;50.924;4.516;2023-05-15T05:13:53;174.30;;;66.97;;
24407;SDS011;12542;50.924;4.516;2023-05-15T05:16:18;159.55;;;64.50;;
24407;SDS011;12542;50.924;4.516;2023-05-15T05:18:44;167.95;;;67.00;;
24407;SDS011;12542;50.924;4.516;2023-05-15T05:21:12;175.10;;;65.80;;
24407;SDS011;12542;50.924;4.516;2023-05-15T05:23:38;160.63;;;61.03;;
24407;SDS011;12542;50.924;4.516;2023-05-15T05:26:04;151.60;;;58.10;;
24407;SDS011;12542;50.924;4.516;2023-05-15T05:28:32;166.10;;;61.50;;
24407;SDS011;12542;50.924;4.516;2023-05-15T05:30:58;147.63;;;58.67;;
24407;SDS011;12542;50.924;4.516;2023-05-15T05:33:24;142.38;;;57.53;;
24407;SDS011;12542;50.924;4.516;2023-05-15T05:35:49;138.80;;;58.08;;
24407;SDS011;12542;50.924;4.516;2023-05-15T05:38:15;135.52;;;52.60;;
24407;SDS011;12542;50.924;4.516;2023-05-15T05:40:41;134.18;;;52.15;;
24407;SDS011;12542;50.924;4.516;2023-05-15T05:43:07;113.43;;;46.63;;
24407;SDS011;12542;50.924;4.516;2023-05-15T05:45:32;116.40;;;48.00;;
24407;SDS011;12542;50.924;4.516;2023-05-15T05:47:58;116.38;;;49.03;;
24407;SDS011;12542;50.924;4.516;2023-05-15T05:50:24;122.10;;;50.40;;
24407;SDS011;12542;50.924;4.516;2023-05-15T05:52:50;118.88;;;49.08;;
24407;SDS011;12542;50.924;4.516;2023-05-15T05:55:15;121.90;;;50.53;;
24407;SDS011;12542;50.924;4.516;2023-05-15T05:57:41;114.03;;;47.85;;
24407;SDS011;12542;50.924;4.516;2023-05-15T06:00:07;112.22;;;48.60;;
24407;SDS011;12542;50.924;4.516;2023-05-15T06:02:34;113.38;;;48.75;;
24407;SDS011;12542;50.924;4.516;2023-05-15T06:05:02;118.82;;;47.83;;
24407;SDS011;12542;50.924;4.516;2023-05-15T06:07:28;117.18;;;48.35;;
24407;SDS011;12542;50.924;4.516;2023-05-15T06:09:54;122.78;;;50.70;;
24407;SDS011;12542;50.924;4.516;2023-05-15T06:12:20;121.78;;;50.20;;
24407;SDS011;12542;50.924;4.516;2023-05-15T06:14:46;128.15;;;50.55;;
24407;SDS011;12542;50.924;4.516;2023-05-15T06:17:12;121.18;;;48.63;;
24407;SDS011;12542;50.924;4.516;2023-05-15T06:19:37;109.82;;;43.53;;
24407;SDS011;12542;50.924;4.516;2023-05-15T06:22:05;100.78;;;42.60;;
24407;SDS011;12542;50.924;4.516;2023-05-15T06:24:31;96.30;;;39.03;;
24407;SDS011;12542;50.924;4.516;2023-05-15T06:26:57;90.05;;;38.90;;
24407;SDS011;12542;50.924;4.516;2023-05-15T06:29:23;92.65;;;39.30;;
24407;SDS011;12542;50.924;4.516;2023-05-15T06:31:50;91.60;;;39.35;;
24407;SDS011;12542;50.924;4.516;2023-05-15T06:34:15;94.88;;;40.80;;
24407;SDS011;12542;50.924;4.516;2023-05-15T06:36:41;90.32;;;39.45;;
24407;SDS011;12542;50.924;4.516;2023-05-15T06:39:07;86.15;;;38.58;;
24407;SDS011;12542;50.924;4.516;2023-05-15T06:41:36;88.93;;;38.63;;
24407;SDS011;12542;50.924;4.516;2023-05-15T06:44:02;95.43;;;40.08;;
24407;SDS011;12542;50.924;4.516;2023-05-15T06:46:28;95.63;;;42.45;;
24407;SDS011;12542;50.924;4.516;2023-05-15T06:48:54;99.68;;;40.40;;
24407;SDS011;12542;50.924;4.516;2023-05-15T06:51:19;107.63;;;43.63;;
24407;SDS011;12542;50.924;4.516;2023-05-15T06:53:45;119.82;;;48.58;;
24407;SDS011;12542;50.924;4.516;2023-05-15T06:56:13;109.90;;;45.38;;
24407;SDS011;12542;50.924;4.516;2023-05-15T06:58:39;113.70;;;47.40;;
24407;SDS011;12542;50.924;4.516;2023-05-15T07:01:05;115.68;;;48.58;;
24407;SDS011;12542;50.924;4.516;2023-05-15T07:03:32;125.80;;;49.60;;
24407;SDS011;12542;50.924;4.516;2023-05-15T07:05:58;114.57;;;48.28;;
24407;SDS011;12542;50.924;4.516;2023-05-15T07:08:26;114.97;;;47.97;;
24407;SDS011;12542;50.924;4.516;2023-05-15T07:10:52;109.63;;;48.00;;
24407;SDS011;12542;50.924;4.516;2023-05-15T07:13:19;106.75;;;46.63;;
24407;SDS011;12542;50.924;4.516;2023-05-15T07:15:45;102.72;;;45.35;;
24407;SDS011;12542;50.924;4.516;2023-05-15T07:18:11;109.32;;;45.80;;
24407;SDS011;12542;50.924;4.516;2023-05-15T07:20:36;110.20;;;45.80;;
24407;SDS011;12542;50.924;4.516;2023-05-15T07:23:03;101.35;;;42.83;;
24407;SDS011;12542;50.924;4.516;2023-05-15T07:25:29;98.72;;;44.58;;
24407;SDS011;12542;50.924;4.516;2023-05-15T07:27:55;101.32;;;42.72;;
24407;SDS011;12542;50.924;4.516;2023-05-15T07:30:21;99.28;;;43.63;;
24407;SDS011;12542;50.924;4.516;2023-05-15T07:32:49;98.15;;;44.88;;
24407;SDS011;12542;50.924;4.516;2023-05-15T07:35:15;98.18;;;43.53;;
24407;SDS011;12542;50.924;4.516;2023-05-15T07:37:41;92.88;;;43.35;;
24407;SDS011;12542;50.924;4.516;2023-05-15T07:40:07;99.15;;;42.38;;
24407;SDS011;12542;50.924;4.516;2023-05-15T07:42:33;96.13;;;44.33;;
24407;SDS011;12542;50.924;4.516;2023-05-15T07:44:59;85.10;;;42.00;;
24407;SDS011;12542;50.924;4.516;2023-05-15T07:47:24;83.78;;;41.33;;
24407;SDS011;12542;50.924;4.516;2023-05-15T07:49:50;89.90;;;41.83;;
24407;SDS011;12542;50.924;4.516;2023-05-15T07:52:16;82.68;;;40.50;;
24407;SDS011;12542;50.924;4.516;2023-05-15T07:54:41;85.55;;;41.70;;
24407;SDS011;12542;50.924;4.516;2023-05-15T07:57:07;85.95;;;42.25;;
24407;SDS011;12542;50.924;4.516;2023-05-15T07:59:33;83.40;;;40.88;;
24407;SDS011;12542;50.924;4.516;2023-05-15T08:02:00;84.93;;;41.22;;
24407;SDS011;12542;50.924;4.516;2023-05-15T08:04:26;82.95;;;41.67;;
24407;SDS011;12542;50.924;4.516;2023-05-15T08:06:51;82.03;;;41.20;;
24407;SDS011;12542;50.924;4.516;2023-05-15T08:09:17;82.43;;;40.17;;
24407;SDS011;12542;50.924;4.516;2023-05-15T08:11:43;85.22;;;41.13;;
24407;SDS011;12542;50.924;4.516;2023-05-15T08:14:11;78.10;;;39.80;;
24407;SDS011;12542;50.924;4.516;2023-05-15T08:16:36;77.00;;;36.70;;
24407;SDS011;12542;50.924;4.516;2023-05-15T08:19:02;80.63;;;39.25;;
24407;SDS011;12542;50.924;4.516;2023-05-15T08:21:30;74.55;;;37.20;;
24407;SDS011;12542;50.924;4.516;2023-05-15T08:23:58;73.55;;;38.03;;
24407;SDS011;12542;50.924;4.516;2023-05-15T08:26:24;73.18;;;37.22;;
24407;SDS011;12542;50.924;4.516;2023-05-15T08:28:50;65.75;;;34.15;;
24407;SDS011;12542;50.924;4.516;2023-05-15T08:31:16;67.28;;;36.83;;
24407;SDS011;12542;50.924;4.516;2023-05-15T08:33:46;63.17;;;33.78;;
24407;SDS011;12542;50.924;4.516;2023-05-15T08:36:12;65.18;;;33.85;;
24407;SDS011;12542;50.924;4.516;2023-05-15T08:38:38;61.55;;;34.72;;
24407;SDS011;12542;50.924;4.516;2023-05-15T08:41:05;58.30;;;33.40;;
24407;SDS011;12542;50.924;4.516;2023-05-15T08:43:35;60.58;;;32.90;;
24407;SDS011;12542;50.924;4.516;2023-05-15T08:46:05;62.22;;;32.85;;
24407;SDS011;12542;50.924;4.516;2023-05-15T08:48:31;62.03;;;34.42;;
24407;SDS011;12542;50.924;4.516;2023-05-15T08:51:01;60.50;;;34.13;;
24407;SDS011;12542;50.924;4.516;2023-05-15T08:53:28;56.92;;;33.58;;
24407;SDS011;12542;50.924;4.516;2023-05-15T08:55:53;57.22;;;33.22;;
24407;SDS011;12542;50.924;4.516;2023-05-15T08:58:20;51.10;;;31.75;;
24407;SDS011;12542;50.924;4.516;2023-05-15T09:00:50;53.15;;;31.23;;
24407;SDS011;12542;50.924;4.516;2023-05-15T09:03:16;56.58;;;33.13;;
24407;SDS011;12542;50.924;4.516;2023-05-15T09:05:43;54.45;;;31.08;;
24407;SDS011;12542;50.924;4.516;2023-05-15T09:08:12;53.47;;;32.00;;
24407;SDS011;12542;50.924;4.516;2023-05-15T09:10:41;52.97;;;31.85;;
24407;SDS011;12542;50.924;4.516;2023-05-15T09:13:07;53.63;;;31.48;;
24407;SDS011;12542;50.924;4.516;2023-05-15T09:15:35;53.47;;;32.15;;
24407;SDS011;12542;50.924;4.516;2023-05-15T09:18:01;52.67;;;30.98;;
24407;SDS011;12542;50.924;4.516;2023-05-15T09:20:34;56.28;;;32.40;;
24407;SDS011;12542;50.924;4.516;2023-05-15T09:23:02;51.47;;;31.20;;
24407;SDS011;12542;50.924;4.516;2023-05-15T09:28:01;49.22;;;31.60;;
24407;SDS011;12542;50.924;4.516;2023-05-15T09:30:27;51.33;;;31.95;;
24407;SDS011;12542;50.924;4.516;2023-05-15T09:32:55;54.95;;;32.22;;
24407;SDS011;12542;50.924;4.516;2023-05-15T09:37:58;53.17;;;33.55;;
24407;SDS011;12542;50.924;4.516;2023-05-15T09:40:27;53.33;;;33.60;;
24407;SDS011;12542;50.924;4.516;2023-05-15T09:42:54;57.22;;;34.20;;
24407;SDS011;12542;50.924;4.516;2023-05-15T09:45:20;52.67;;;33.70;;
24407;SDS011;12542;50.924;4.516;2023-05-15T09:47:46;47.50;;;31.23;;
24407;SDS011;12542;50.924;4.516;2023-05-15T09:50:12;47.38;;;30.35;;
24407;SDS011;12542;50.924;4.516;2023-05-15T09:52:47;49.03;;;31.17;;
24407;SDS011;12542;50.924;4.516;2023-05-15T09:55:14;46.42;;;30.65;;
24407;SDS011;12542;50.924;4.516;2023-05-15T09:57:41;52.20;;;31.33;;
24407;SDS011;12542;50.924;4.516;2023-05-15T10:00:07;48.30;;;31.02;;
24407;SDS011;12542;50.924;4.516;2023-05-15T10:02:38;49.08;;;31.00;;
24407;SDS011;12542;50.924;4.516;2023-05-15T10:05:05;46.80;;;30.35;;
24407;SDS011;12542;50.924;4.516;2023-05-15T10:07:33;47.65;;;28.92;;
24407;SDS011;12542;50.924;4.516;2023-05-15T10:10:00;46.70;;;30.10;;
24407;SDS011;12542;50.924;4.516;2023-05-15T10:12:28;46.75;;;29.63;;
24407;SDS011;12542;50.924;4.516;2023-05-15T10:14:56;46.63;;;29.05;;
24407;SDS011;12542;50.924;4.516;2023-05-15T10:17:23;55.20;;;29.58;;
24407;SDS011;12542;50.924;4.516;2023-05-15T10:19:51;46.92;;;29.08;;
24407;SDS011;12542;50.924;4.516;2023-05-15T10:22:18;43.92;;;27.38;;
24407;SDS011;12542;50.924;4.516;2023-05-15T10:25:08;48.90;;;29.25;;
24407;SDS011;12542;50.924;4.516;2023-05-15T10:27:37;46.42;;;28.95;;
24407;SDS011;12542;50.924;4.516;2023-05-15T10:30:06;46.55;;;28.73;;
24407;SDS011;12542;50.924;4.516;2023-05-15T10:32:35;48.42;;;28.58;;
24407;SDS011;12542;50.924;4.516;2023-05-15T10:35:01;45.95;;;29.05;;
24407;SDS011;12542;50.924;4.516;2023-05-15T10:37:28;50.13;;;30.13;;
24407;SDS011;12542;50.924;4.516;2023-05-15T10:39:54;51.85;;;31.30;;
24407;SDS011;12542;50.924;4.516;2023-05-15T10:42:25;51.38;;;31.02;;
24407;SDS011;12542;50.924;4.516;2023-05-15T10:44:51;54.70;;;30.33;;
24407;SDS011;12542;50.924;4.516;2023-05-15T10:47:20;57.60;;;32.28;;
24407;SDS011;12542;50.924;4.516;2023-05-15T10:49:46;59.53;;;32.75;;
24407;SDS011;12542;50.924;4.516;2023-05-15T10:52:12;59.58;;;32.35;;
24407;SDS011;12542;50.924;4.516;2023-05-15T10:54:37;51.45;;;29.80;;
24407;SDS011;12542;50.924;4.516;2023-05-15T10:57:03;56.95;;;32.33;;
24407;SDS011;12542;50.924;4.516;2023-05-15T10:59:31;59.22;;;31.92;;
24407;SDS011;12542;50.924;4.516;2023-05-15T11:04:43;54.05;;;28.23;;
24407;SDS011;12542;50.924;4.516;2023-05-15T11:07:12;57.92;;;30.30;;
24407;SDS011;12542;50.924;4.516;2023-05-15T11:09:39;51.47;;;28.52;;
24407;SDS011;12542;50.924;4.516;2023-05-15T11:12:06;58.17;;;30.02;;
24407;SDS011;12542;50.924;4.516;2023-05-15T11:14:34;54.80;;;30.65;;
24407;SDS011;12542;50.924;4.516;2023-05-15T11:17:02;56.08;;;29.77;;
24407;SDS011;12542;50.924;4.516;2023-05-15T11:24:47;67.50;;;34.83;;
24407;SDS011;12542;50.924;4.516;2023-05-15T11:27:22;69.20;;;33.63;;
24407;SDS011;12542;50.924;4.516;2023-05-15T11:33:01;67.93;;;33.97;;
24407;SDS011;12542;50.924;4.516;2023-05-15T11:35:39;74.20;;;34.80;;
24407;SDS011;12542;50.924;4.516;2023-05-15T11:38:11;109.80;;;44.50;;
24407;SDS011;12542;50.924;4.516;2023-05-15T11:43:30;118.25;;;49.60;;
24407;SDS011;12542;50.924;4.516;2023-05-15T11:46:03;121.07;;;50.28;;
24407;SDS011;12542;50.924;4.516;2023-05-15T11:48:33;118.40;;;49.58;;
24407;SDS011;12542;50.924;4.516;2023-05-15T11:51:27;115.22;;;47.50;;
24407;SDS011;12542;50.924;4.516;2023-05-15T11:53:54;118.97;;;49.58;;
24407;SDS011;12542;50.924;4.516;2023-05-15T11:56:22;119.50;;;49.65;;
24407;SDS011;12542;50.924;4.516;2023-05-15T11:59:01;115.82;;;47.53;;
24407;SDS011;12542;50.924;4.516;2023-05-15T12:04:02;116.00;;;47.75;;
24407;SDS011;12542;50.924;4.516;2023-05-15T12:06:36;117.10;;;50.83;;
24407;SDS011;12542;50.924;4.516;2023-05-15T12:09:02;113.30;;;47.95;;
24407;SDS011;12542;50.924;4.516;2023-05-15T12:11:28;112.55;;;48.17;;
24407;SDS011;12542;50.924;4.516;2023-05-15T12:13:55;121.05;;;50.15;;
24407;SDS011;12542;50.924;4.516;2023-05-15T12:16:24;112.00;;;47.28;;
24407;SDS011;12542;50.924;4.516;2023-05-15T12:18:51;107.45;;;46.38;;
24407;SDS011;12542;50.924;4.516;2023-05-15T12:21:17;110.93;;;46.33;;
24407;SDS011;12542;50.924;4.516;2023-05-15T12:23:52;106.88;;;47.53;;
24407;SDS011;12542;50.924;4.516;2023-05-15T12:26:19;99.57;;;43.75;;
24407;SDS011;12542;50.924;4.516;2023-05-15T12:28:47;96.47;;;42.92;;
24407;SDS011;12542;50.924;4.516;2023-05-15T12:31:14;95.15;;;41.78;;
24407;SDS011;12542;50.924;4.516;2023-05-15T12:33:43;98.72;;;42.45;;
24407;SDS011;12542;50.924;4.516;2023-05-15T12:36:10;89.18;;;41.72;;
24407;SDS011;12542;50.924;4.516;2023-05-15T12:38:35;94.30;;;40.20;;
24407;SDS011;12542;50.924;4.516;2023-05-15T12:41:01;93.32;;;40.17;;
24407;SDS011;12542;50.924;4.516;2023-05-15T12:43:27;92.72;;;41.72;;
24407;SDS011;12542;50.924;4.516;2023-05-15T12:45:55;99.63;;;42.65;;
24407;SDS011;12542;50.924;4.516;2023-05-15T12:48:22;86.07;;;38.38;;
24407;SDS011;12542;50.924;4.516;2023-05-15T12:50:52;85.95;;;37.40;;
24407;SDS011;12542;50.924;4.516;2023-05-15T12:53:20;92.65;;;40.33;;
24407;SDS011;12542;50.924;4.516;2023-05-15T12:55:46;90.88;;;39.25;;
24407;SDS011;12542;50.924;4.516;2023-05-15T12:58:13;76.22;;;34.42;;
24407;SDS011;12542;50.924;4.516;2023-05-15T13:00:43;56.72;;;25.02;;
24407;SDS011;12542;50.924;4.516;2023-05-15T13:03:13;46.78;;;22.02;;
24407;SDS011;12542;50.924;4.516;2023-05-15T13:05:41;38.63;;;19.50;;
24407;SDS011;12542;50.924;4.516;2023-05-15T13:08:07;35.08;;;17.65;;
24407;SDS011;12542;50.924;4.516;2023-05-15T13:10:35;38.70;;;18.45;;
24407;SDS011;12542;50.924;4.516;2023-05-15T13:13:02;34.40;;;18.05;;
24407;SDS011;12542;50.924;4.516;2023-05-15T13:15:37;33.20;;;16.35;;
24407;SDS011;12542;50.924;4.516;2023-05-15T13:18:08;24.77;;;12.30;;
24407;SDS011;12542;50.924;4.516;2023-05-15T13:20:39;24.23;;;11.85;;
24407;SDS011;12542;50.924;4.516;2023-05-15T13:23:07;15.52;;;7.97;;
24407;SDS011;12542;50.924;4.516;2023-05-15T13:25:34;11.75;;;6.20;;
24407;SDS011;12542;50.924;4.516;2023-05-15T13:28:01;11.07;;;5.78;;
24407;SDS011;12542;50.924;4.516;2023-05-15T13:30:33;11.38;;;4.55;;
24407;SDS011;12542;50.924;4.516;2023-05-15T13:33:00;6.13;;;2.97;;
24407;SDS011;12542;50.924;4.516;2023-05-15T13:35:26;8.07;;;3.25;;
24407;SDS011;12542;50.924;4.516;2023-05-15T13:37:52;6.00;;;2.40;;
24407;SDS011;12542;50.924;4.516;2023-05-15T13:40:18;4.15;;;1.80;;
24407;SDS011;12542;50.924;4.516;2023-05-15T13:42:46;6.28;;;2.13;;
24407;SDS011;12542;50.924;4.516;2023-05-15T13:45:12;6.47;;;2.03;;
24407;SDS011;12542;50.924;4.516;2023-05-15T13:47:39;7.20;;;2.60;;
24407;SDS011;12542;50.924;4.516;2023-05-15T13:50:06;5.97;;;1.80;;
24407;SDS011;12542;50.924;4.516;2023-05-15T13:52:33;5.60;;;2.33;;
24407;SDS011;12542;50.924;4.516;2023-05-15T13:54:59;4.28;;;1.40;;
24407;SDS011;12542;50.924;4.516;2023-05-15T13:57:25;2.67;;;1.60;;
24407;SDS011;12542;50.924;4.516;2023-05-15T13:59:51;5.60;;;1.60;;
24407;SDS011;12542;50.924;4.516;2023-05-15T14:02:17;5.75;;;1.77;;
24407;SDS011;12542;50.924;4.516;2023-05-15T14:04:43;10.02;;;1.98;;
24407;SDS011;12542;50.924;4.516;2023-05-15T14:07:10;5.22;;;1.70;;
24407;SDS011;12542;50.924;4.516;2023-05-15T14:09:37;5.18;;;1.73;;
24407;SDS011;12542;50.924;4.516;2023-05-15T14:12:03;3.58;;;1.90;;
24407;SDS011;12542;50.924;4.516;2023-05-15T14:14:28;5.97;;;2.70;;
24407;SDS011;12542;50.924;4.516;2023-05-15T14:16:55;6.50;;;2.35;;
24407;SDS011;12542;50.924;4.516;2023-05-15T14:19:20;5.22;;;2.53;;
24407;SDS011;12542;50.924;4.516;2023-05-15T14:21:46;7.10;;;2.95;;
24407;SDS011;12542;50.924;4.516;2023-05-15T14:24:13;8.40;;;2.45;;
24407;SDS011;12542;50.924;4.516;2023-05-15T14:26:38;6.70;;;2.80;;
24407;SDS011;12542;50.924;4.516;2023-05-15T14:29:04;8.88;;;3.00;;
24407;SDS011;12542;50.924;4.516;2023-05-15T14:31:30;9.10;;;2.80;;
24407;SDS011;12542;50.924;4.516;2023-05-15T14:33:55;7.32;;;3.30;;
24407;SDS011;12542;50.924;4.516;2023-05-15T14:36:21;10.55;;;3.15;;
24407;SDS011;12542;50.924;4.516;2023-05-15T14:38:47;7.78;;;2.28;;
24407;SDS011;12542;50.924;4.516;2023-05-15T14:41:13;6.47;;;2.78;;
24407;SDS011;12542;50.924;4.516;2023-05-15T14:43:39;13.02;;;3.80;;
24407;SDS011;12542;50.924;4.516;2023-05-15T14:46:04;11.95;;;3.55;;
24407;SDS011;12542;50.924;4.516;2023-05-15T14:48:30;8.30;;;2.65;;
24407;SDS011;12542;50.924;4.516;2023-05-15T14:50:57;10.60;;;3.13;;
24407;SDS011;12542;50.924;4.516;2023-05-15T14:53:24;14.65;;;3.42;;
24407;SDS011;12542;50.924;4.516;2023-05-15T14:55:50;13.40;;;3.42;;
24407;SDS011;12542;50.924;4.516;2023-05-15T14:58:16;7.32;;;2.63;;
24407;SDS011;12542;50.924;4.516;2023-05-15T15:00:42;11.77;;;3.47;;
24407;SDS011;12542;50.924;4.516;2023-05-15T15:03:07;4.68;;;3.28;;
24407;SDS011;12542;50.924;4.516;2023-05-15T15:05:34;9.18;;;3.17;;